createdAt,value
2022-11-12T00:00:50.086Z,23.27
2022-11-12T00:06:00.978Z,24.00
2022-11-12T00:11:13.504Z,24.07
2022-11-12T00:16:24.660Z,22.70
2022-11-12T00:21:35.833Z,24.47
2022-11-12T00:26:48.235Z,24.13
2022-11-12T00:31:59.316Z,24.47
2022-11-12T00:37:10.653Z,25.63
2022-11-12T00:42:23.230Z,25.23
2022-11-12T00:47:34.395Z,21.27
2022-11-12T00:52:45.804Z,19.47
2022-11-12T00:58:00.194Z,19.17
2022-11-12T01:03:11.060Z,20.80
2022-11-12T01:08:22.647Z,21.60
2022-11-12T01:13:38.786Z,19.87
2022-11-12T01:18:53.840Z,18.73
2022-11-12T01:24:04.831Z,21.40
2022-11-12T01:29:17.015Z,19.70
2022-11-12T01:34:28.178Z,20.90
2022-11-12T01:39:39.391Z,21.93
2022-11-12T01:44:53.793Z,24.00
2022-11-12T01:50:08.198Z,22.90
2022-11-12T01:55:21.013Z,22.17
2022-11-12T02:00:33.275Z,21.17
2022-11-12T02:05:44.623Z,24.27
2022-11-12T02:10:55.573Z,21.30
2022-11-12T02:16:09.673Z,23.70
2022-11-12T02:21:22.067Z,22.50
2022-11-12T02:26:35.380Z,22.40
2022-11-12T02:31:46.338Z,22.90
2022-11-12T02:36:58.877Z,23.37
2022-11-12T02:42:10.066Z,22.67
2022-11-12T02:47:21.155Z,20.40
2022-11-12T02:52:34.867Z,21.17
2022-11-12T02:57:45.791Z,21.57
2022-11-12T03:02:59.905Z,22.43
2022-11-12T03:08:12.160Z,20.17
2022-11-12T03:13:23.227Z,21.90
2022-11-12T03:18:34.810Z,21.20
2022-11-12T03:23:47.403Z,21.50
2022-11-12T03:28:58.648Z,20.00
2022-11-12T03:34:09.986Z,20.80
2022-11-12T03:39:22.596Z,21.33
2022-11-12T03:44:33.908Z,20.97
2022-11-12T03:49:45.129Z,24.23
2022-11-12T03:54:57.675Z,21.70
2022-11-12T04:00:10.462Z,24.50
2022-11-12T04:05:39.390Z,20.77
2022-11-12T04:10:52.268Z,22.53
2022-11-12T04:16:22.415Z,21.97
2022-11-12T04:21:55.577Z,20.17
2022-11-12T04:27:08.711Z,19.97
2022-11-12T04:32:19.993Z,19.67
2022-11-12T04:37:44.525Z,18.33
2022-11-12T04:43:15.139Z,21.00
2022-11-12T04:48:27.007Z,22.00
2022-11-12T04:53:38.473Z,17.13
2022-11-12T04:58:51.188Z,17.87
2022-11-12T05:04:02.436Z,17.83
2022-11-12T05:09:13.747Z,18.67
2022-11-12T05:14:26.279Z,18.53
2022-11-12T05:19:37.509Z,20.33
2022-11-12T05:24:48.795Z,22.17
2022-11-12T05:30:01.409Z,17.67
2022-11-12T05:35:12.921Z,18.87
2022-11-12T05:40:24.349Z,18.93
2022-11-12T05:45:36.944Z,22.13
2022-11-12T05:51:11.761Z,20.93
2022-11-12T05:56:21.732Z,20.37
2022-11-12T06:01:34.496Z,17.80
2022-11-12T06:06:45.830Z,19.80
2022-11-12T06:11:57.032Z,21.60
2022-11-12T06:17:09.675Z,18.47
2022-11-12T06:22:20.930Z,17.77
2022-11-12T06:27:32.361Z,17.13
2022-11-12T06:32:46.651Z,15.13
2022-11-12T06:37:57.729Z,15.70
2022-11-12T06:43:09.128Z,15.07
2022-11-12T06:48:21.780Z,14.13
2022-11-12T06:53:32.981Z,15.63
2022-11-12T06:58:44.342Z,18.03
2022-11-12T07:03:56.595Z,13.33
2022-11-12T07:09:08.071Z,15.10
2022-11-12T07:14:19.340Z,13.10
2022-11-12T07:19:31.895Z,14.20
2022-11-12T07:24:43.111Z,13.83
2022-11-12T07:29:54.364Z,11.87
2022-11-12T07:35:07.640Z,15.30
2022-11-12T07:40:18.714Z,12.10
2022-11-12T07:45:29.775Z,13.60
2022-11-12T07:50:42.358Z,15.80
2022-11-12T07:55:54.223Z,14.63
2022-11-12T08:01:09.029Z,13.90
2022-11-12T08:06:21.756Z,14.20
2022-11-12T08:11:33.170Z,13.60
2022-11-12T08:16:44.060Z,12.63
2022-11-12T08:21:56.499Z,11.67
2022-11-12T08:27:07.884Z,10.47
2022-11-12T08:32:19.134Z,10.40
2022-11-12T08:37:31.801Z,11.83
2022-11-12T08:42:43.012Z,9.97
2022-11-12T08:47:54.251Z,14.00
2022-11-12T08:53:08.456Z,11.37
2022-11-12T08:58:19.788Z,12.47
2022-11-12T09:03:31.169Z,11.40
2022-11-12T09:08:43.787Z,10.90
2022-11-12T09:13:55.113Z,10.90
2022-11-12T09:19:06.130Z,11.40
2022-11-12T09:24:18.626Z,12.00
2022-11-12T09:29:29.707Z,12.43
2022-11-12T09:34:40.856Z,11.40
2022-11-12T09:39:53.514Z,12.90
2022-11-12T09:45:07.176Z,12.63
2022-11-12T09:50:21.542Z,13.80
2022-11-12T09:55:35.957Z,12.47
2022-11-12T10:00:53.120Z,12.87
2022-11-12T10:06:10.633Z,12.87
2022-11-12T10:11:30.798Z,13.70
2022-11-12T10:16:52.031Z,13.23
2022-11-12T10:22:08.679Z,12.67
2022-11-12T10:27:21.674Z,13.33
2022-11-12T10:32:32.577Z,14.70
2022-11-12T10:37:47.468Z,13.83
2022-11-12T10:43:01.106Z,14.80
2022-11-12T10:48:27.026Z,13.83
2022-11-12T10:53:39.800Z,13.33
2022-11-12T10:59:09.746Z,13.50
2022-11-12T11:04:26.582Z,14.80
2022-11-12T11:09:37.660Z,14.30
2022-11-12T11:15:05.756Z,15.33
2022-11-12T11:20:19.938Z,15.77
2022-11-12T11:25:33.935Z,17.17
2022-11-12T11:30:50.842Z,15.90
2022-11-12T11:36:14.873Z,17.13
2022-11-12T11:41:36.220Z,15.30
2022-11-12T11:46:57.223Z,15.17
2022-11-12T11:52:14.234Z,14.20
2022-11-12T11:57:29.404Z,21.20
2022-11-12T12:02:49.058Z,15.43
2022-11-12T12:08:03.419Z,14.97
2022-11-12T12:13:20.163Z,17.23
2022-11-12T12:18:35.758Z,17.17
2022-11-12T12:23:49.675Z,17.30
2022-11-12T12:29:04.111Z,17.23
2022-11-12T12:34:21.415Z,21.30
2022-11-12T12:39:36.522Z,25.53
2022-11-12T12:45:01.169Z,25.40
2022-11-12T12:50:14.962Z,27.90
2022-11-12T12:55:35.417Z,25.97
2022-11-12T13:00:51.343Z,25.47
2022-11-12T13:06:15.936Z,26.87
2022-11-12T13:11:59.720Z,21.50
2022-11-12T13:17:12.015Z,20.70
2022-11-12T13:22:48.992Z,21.70
2022-11-12T13:28:07.126Z,26.20
2022-11-12T13:33:24.781Z,25.10
2022-11-12T13:38:38.938Z,28.93
2022-11-12T13:43:50.272Z,29.17
2022-11-12T13:49:03.205Z,28.80
2022-11-12T13:54:35.102Z,54.13
2022-11-12T13:59:47.478Z,33.63
2022-11-12T14:04:58.603Z,29.43
2022-11-12T14:10:16.646Z,28.03
2022-11-12T14:15:35.963Z,27.80
2022-11-12T14:20:47.144Z,30.00
2022-11-12T14:25:59.872Z,26.20
2022-11-12T14:31:14.364Z,34.63
2022-11-12T14:36:27.679Z,28.47
2022-11-12T14:41:42.732Z,28.00
2022-11-12T14:46:55.810Z,29.93
2022-11-12T14:52:08.701Z,32.47
2022-11-12T14:57:24.385Z,28.20
2022-11-12T15:02:51.223Z,29.60
2022-11-12T15:08:07.615Z,29.57
2022-11-12T15:13:21.015Z,34.43
2022-11-12T15:18:33.375Z,34.53
2022-11-12T15:23:48.549Z,35.47
2022-11-12T15:29:01.554Z,34.57
2022-11-12T15:34:25.389Z,43.40
2022-11-12T15:39:40.927Z,41.57
2022-11-12T15:44:57.914Z,39.13
2022-11-12T15:50:15.114Z,30.90
2022-11-12T15:55:26.217Z,36.90
2022-11-12T16:00:39.435Z,34.20
2022-11-12T16:05:50.862Z,48.70
2022-11-12T16:11:01.966Z,35.80
2022-11-12T16:16:14.534Z,34.53
2022-11-12T16:21:25.430Z,57.30
2022-11-12T16:26:36.848Z,38.63
2022-11-12T16:31:49.161Z,44.10
2022-11-12T16:37:00.359Z,53.37
2022-11-12T16:42:11.848Z,42.50
2022-11-12T16:47:24.231Z,30.90
2022-11-12T16:52:35.504Z,34.17
2022-11-12T16:57:46.753Z,30.97
2022-11-12T17:02:59.336Z,31.30
2022-11-12T17:08:11.111Z,35.50
2022-11-12T17:13:22.540Z,35.47
2022-11-12T17:18:37.611Z,33.57
2022-11-12T17:23:48.895Z,37.70
2022-11-12T17:29:04.891Z,29.40
2022-11-12T17:34:20.491Z,34.10
2022-11-12T17:39:31.931Z,34.90
2022-11-12T17:44:43.083Z,35.90
2022-11-12T17:49:55.729Z,37.70
2022-11-12T17:55:07.066Z,35.20
2022-11-12T18:00:18.536Z,33.67
2022-11-12T18:05:31.519Z,37.80
2022-11-12T18:10:45.583Z,34.67
2022-11-12T18:15:56.601Z,46.97
2022-11-12T18:21:09.326Z,30.97
2022-11-12T18:26:21.261Z,32.60
2022-11-12T18:31:32.811Z,33.40
2022-11-12T18:36:45.343Z,118.90
2022-11-12T18:41:56.824Z,34.03
2022-11-12T18:47:08.006Z,31.57
2022-11-12T18:52:20.870Z,34.03
2022-11-12T18:57:32.220Z,30.20
2022-11-12T19:02:43.537Z,34.57
2022-11-12T19:07:56.266Z,31.40
2022-11-12T19:13:07.523Z,32.40
2022-11-12T19:18:18.842Z,35.50
2022-11-12T19:23:31.515Z,30.50
2022-11-12T19:28:43.277Z,29.53
2022-11-12T19:33:54.893Z,30.43
2022-11-12T19:39:07.373Z,32.80
2022-11-12T19:44:18.235Z,30.00
2022-11-12T19:49:29.482Z,33.40
2022-11-12T19:54:41.860Z,38.83
2022-11-12T19:59:53.103Z,33.27
2022-11-12T20:05:04.577Z,33.50
2022-11-12T20:10:17.472Z,40.87
2022-11-12T20:15:28.653Z,56.37
2022-11-12T20:20:39.922Z,35.77
2022-11-12T20:25:52.606Z,40.90
2022-11-12T20:31:05.211Z,31.70
2022-11-12T20:36:17.464Z,28.47
2022-11-12T20:41:31.387Z,26.87
2022-11-12T20:46:42.287Z,29.07
2022-11-12T20:51:53.593Z,31.40
2022-11-12T20:57:06.248Z,34.50
2022-11-12T21:02:17.602Z,29.07
2022-11-12T21:07:29.537Z,35.53
2022-11-12T21:12:42.045Z,25.83
2022-11-12T21:17:53.559Z,34.70
2022-11-12T21:23:05.033Z,26.77
2022-11-12T21:28:17.667Z,29.20
2022-11-12T21:33:28.994Z,28.77
2022-11-12T21:38:41.531Z,31.27
2022-11-12T21:43:54.368Z,25.17
2022-11-12T21:49:05.676Z,25.90
2022-11-12T21:54:16.719Z,25.23
2022-11-12T21:59:29.274Z,23.47
2022-11-12T22:04:40.521Z,24.90
2022-11-12T22:09:56.498Z,25.90
2022-11-12T22:15:10.431Z,28.10
2022-11-12T22:20:21.605Z,26.77
2022-11-12T22:25:32.833Z,25.90
2022-11-12T22:30:45.496Z,25.10
2022-11-12T22:35:56.859Z,25.03
2022-11-12T22:41:08.760Z,25.07
2022-11-12T22:46:23.369Z,24.60
2022-11-12T22:51:35.029Z,26.50
2022-11-12T22:56:46.356Z,22.57
2022-11-12T23:01:58.930Z,24.40
2022-11-12T23:07:10.688Z,23.63
2022-11-12T23:12:21.864Z,25.30
2022-11-12T23:17:34.378Z,22.40
2022-11-12T23:22:45.588Z,22.50
2022-11-12T23:27:56.760Z,20.73
2022-11-12T23:33:09.757Z,20.50
2022-11-12T23:38:20.972Z,22.00
2022-11-12T23:43:32.138Z,23.47
2022-11-12T23:48:44.997Z,23.30
2022-11-12T23:53:55.922Z,21.57
2022-11-12T23:59:07.437Z,21.53
